Time;durP1;ratioP1;P1;durP2;ratioP2;P2;SDS_P1;SDS_P2;PMS_P1;PMS_P2;Temp;Humidity;BMP_temperature;BMP_pressure;BME280_temperature;BME280_humidity;BME280_pressure;Samples;Min_cycle;Max_cycle;Signal;HPM_P1;HPM_P2
2022/11/23 00:00:03;;;;;;;24.80;15.20;;;;;;;3.63;61.66;100228.05;105742;1306;21980;-65
2022/11/23 00:02:28;;;;;;;20.10;13.40;;;;;;;3.63;61.85;100233.79;105610;1307;21958;-65
2022/11/23 00:04:55;;;;;;;21.10;14.40;;;;;;;3.62;62.00;100234.81;104909;1307;1002974;-65
2022/11/23 00:07:21;;;;;;;23.70;14.10;;;;;;;3.66;62.04;100232.96;105650;1308;21968;-65
2022/11/23 00:09:46;;;;;;;18.80;12.70;;;;;;;3.75;62.00;100229.09;105763;1306;21973;-64
2022/11/23 00:12:12;;;;;;;19.80;13.00;;;;;;;3.82;62.08;100232.81;105828;1306;21959;-66
2022/11/23 00:14:38;;;;;;;20.00;11.90;;;;;;;3.88;61.89;100235.33;105739;1306;21977;-66
2022/11/23 00:17:04;;;;;;;17.70;12.20;;;;;;;3.93;61.94;100238.87;105711;1305;22471;-65
2022/11/23 00:19:30;;;;;;;17.00;10.60;;;;;;;3.98;61.95;100239.97;105710;1299;21978;-65
2022/11/23 00:21:58;;;;;;;18.20;10.80;;;;;;;4.03;62.25;100245.92;105704;1306;21977;-65
2022/11/23 00:24:24;;;;;;;20.00;11.40;;;;;;;4.09;62.14;100246.52;105781;1306;21950;-67
2022/11/23 00:26:50;;;;;;;16.60;10.20;;;;;;;4.17;62.19;100244.19;105815;1306;22433;-65
2022/11/23 00:29:16;;;;;;;19.90;10.90;;;;;;;4.24;62.26;100251.73;105700;1307;21998;-65
2022/11/23 00:31:43;;;;;;;16.20;9.70;;;;;;;4.31;62.46;100251.11;105757;1309;21989;-65
2022/11/23 00:34:09;;;;;;;13.50;9.10;;;;;;;4.38;62.43;100252.42;105769;1303;22021;-64
2022/11/23 00:36:35;;;;;;;14.50;9.80;;;;;;;4.43;62.39;100252.98;105713;1306;21977;-66
2022/11/23 00:39:01;;;;;;;14.70;10.00;;;;;;;4.49;62.29;100253.75;105735;1306;22007;-66
2022/11/23 00:41:28;;;;;;;14.50;9.30;;;;;;;4.56;62.17;100245.30;105752;1306;22052;-64
2022/11/23 00:43:54;;;;;;;16.90;10.30;;;;;;;4.59;62.12;100238.91;105748;1306;21986;-64
2022/11/23 00:46:22;;;;;;;18.80;10.90;;;;;;;4.61;62.32;100243.10;105698;1306;21970;-65
2022/11/23 00:48:51;;;;;;;17.30;10.70;;;;;;;4.66;62.22;100243.48;105781;1302;21978;-64
2022/11/23 00:51:21;;;;;;;15.70;10.70;;;;;;;4.69;62.29;100242.30;105795;1302;21964;-63
2022/11/23 00:53:51;;;;;;;14.50;10.30;;;;;;;4.73;62.32;100242.69;105753;1306;22002;-66
2022/11/23 00:56:17;;;;;;;15.10;10.30;;;;;;;4.77;62.44;100242.38;105619;1304;22023;-64
2022/11/23 00:58:52;;;;;;;16.30;10.20;;;;;;;4.78;62.65;100240.30;105613;1308;21965;-65
2022/11/23 01:01:22;;;;;;;14.90;10.40;;;;;;;4.81;62.47;100240.67;105624;1309;21959;-66
2022/11/23 01:03:51;;;;;;;15.30;10.40;;;;;;;4.83;62.56;100241.40;105695;1306;22105;-65
2022/11/23 01:06:22;;;;;;;16.50;11.70;;;;;;;4.87;62.66;100244.03;105718;1303;23086;-64
2022/11/23 01:08:49;;;;;;;20.20;11.30;;;;;;;4.92;62.61;100253.29;105763;1306;22035;-66
2022/11/23 01:11:15;;;;;;;21.10;12.10;;;;;;;4.97;62.84;100256.98;105748;1306;22019;-63
2022/11/23 01:13:41;;;;;;;18.30;11.70;;;;;;;5.01;62.91;100255.80;105724;1306;22015;-64
2022/11/23 01:16:21;;;;;;;21.30;11.50;;;;;;;5.03;62.82;100245.91;105712;1303;21963;-64
2022/11/23 01:18:51;;;;;;;16.70;10.70;;;;;;;5.06;62.77;100246.98;105737;1308;21978;-64
2022/11/23 01:21:17;;;;;;;15.90;10.00;;;;;;;5.08;62.82;100248.73;105649;1307;21968;-65
2022/11/23 01:23:43;;;;;;;18.50;10.00;;;;;;;5.15;62.85;100240.78;105734;1306;21981;-65
2022/11/23 01:26:09;;;;;;;14.50;10.50;;;;;;;5.19;62.56;100238.20;105879;1306;21985;-65
2022/11/23 01:28:38;;;;;;;17.50;11.00;;;;;;;5.19;62.62;100244.46;105984;1306;22023;-65
2022/11/23 01:31:05;;;;;;;18.00;11.60;;;;;;;5.21;62.43;100236.99;105964;1303;22006;-66
2022/11/23 01:33:32;;;;;;;19.60;11.10;;;;;;;5.21;62.44;100227.42;105871;1306;23646;-66
2022/11/23 01:35:58;;;;;;;15.50;10.90;;;;;;;5.20;62.49;100222.38;105723;1306;22012;-66
2022/11/23 01:38:26;;;;;;;13.90;10.00;;;;;;;5.24;62.49;100224.50;105911;1306;21984;-65
2022/11/23 01:40:52;;;;;;;14.00;10.30;;;;;;;5.24;62.15;100232.16;105921;1306;23798;-66
2022/11/23 01:43:18;;;;;;;12.80;9.80;;;;;;;5.27;62.25;100237.91;105879;1306;22051;-67
2022/11/23 01:45:56;;;;;;;14.80;10.40;;;;;;;5.30;62.08;100239.67;105745;1306;21978;-66
2022/11/23 01:48:50;;;;;;;15.30;10.00;;;;;;;5.30;62.01;100235.86;105747;1301;21966;-65
2022/11/23 01:51:28;;;;;;;17.10;9.90;;;;;;;5.28;61.78;100236.54;105713;1306;21977;-66
2022/11/23 01:53:56;;;;;;;31.90;12.20;;;;;;;5.26;62.08;100241.73;105905;1306;21992;-67
2022/11/23 01:56:25;;;;;;;19.50;10.70;;;;;;;5.25;61.98;100239.64;105887;1305;22019;-67
2022/11/23 01:58:52;;;;;;;15.80;10.70;;;;;;;5.27;62.27;100233.92;105933;1305;22046;-65
2022/11/23 02:01:18;;;;;;;15.30;9.80;;;;;;;5.28;62.17;100229.73;106331;1304;21965;-66
2022/11/23 02:03:45;;;;;;;18.90;10.00;;;;;;;5.29;62.19;100230.79;105702;1306;21957;-65
2022/11/23 02:06:14;;;;;;;21.30;12.30;;;;;;;5.32;62.27;100229.06;105748;1306;22006;-65
2022/11/23 02:08:40;;;;;;;15.90;11.20;;;;;;;5.31;62.21;100225.76;105044;1306;1002623;-65
2022/11/23 02:11:07;;;;;;;16.20;11.10;;;;;;;5.28;62.55;100231.32;105742;1306;21965;-65
2022/11/23 02:13:33;;;;;;;16.20;11.70;;;;;;;5.28;62.56;100230.44;105731;1306;22006;-67
2022/11/23 02:15:58;;;;;;;19.40;12.10;;;;;;;5.31;62.30;100226.81;105845;1306;22013;-67
2022/11/23 02:18:26;;;;;;;22.40;11.00;;;;;;;5.39;62.28;100226.34;105700;1305;21973;-68
2022/11/23 02:20:51;;;;;;;18.30;9.80;;;;;;;5.48;62.35;100229.18;105732;1305;21992;-68
2022/11/23 02:23:37;;;;;;;16.80;10.00;;;;;;;5.54;62.19;100227.30;105654;1306;22012;-67
2022/11/23 02:26:15;;;;;;;16.40;10.70;;;;;;;5.59;62.20;100226.80;105699;1306;21960;-67
2022/11/23 02:29:06;;;;;;;17.20;11.90;;;;;;;5.56;62.32;100225.91;105988;1306;21974;-67
2022/11/23 02:31:32;;;;;;;19.70;12.30;;;;;;;5.57;62.32;100222.27;105908;1305;21966;-65
2022/11/23 02:33:58;;;;;;;19.20;11.30;;;;;;;5.58;62.32;100221.58;105884;1301;21973;-65
2022/11/23 02:36:40;;;;;;;19.80;11.10;;;;;;;5.59;62.48;100218.62;105969;1303;21965;-66
2022/11/23 02:39:22;;;;;;;16.30;10.20;;;;;;;5.61;62.58;100208.02;105989;1304;21966;-68
2022/11/23 02:41:50;;;;;;;14.30;10.30;;;;;;;5.65;62.35;100209.27;105959;1306;22152;-65
2022/11/23 02:44:18;;;;;;;18.60;10.10;;;;;;;5.67;62.38;100208.92;105859;1306;21967;-66
2022/11/23 02:46:44;;;;;;;13.00;9.30;;;;;;;5.67;62.34;100211.02;105728;1303;22023;-68
2022/11/23 02:49:10;;;;;;;14.80;11.20;;;;;;;5.69;62.46;100206.50;105697;1305;21971;-66
2022/11/23 02:51:35;;;;;;;16.30;10.70;;;;;;;5.77;62.37;100213.84;105728;1304;21978;-67
2022/11/23 02:54:01;;;;;;;13.50;10.20;;;;;;;5.81;62.46;100215.25;105722;1306;21965;-68
2022/11/23 02:56:27;;;;;;;17.00;10.80;;;;;;;5.83;62.85;100209.86;105853;1306;22000;-66
2022/11/23 02:58:53;;;;;;;15.00;9.60;;;;;;;5.87;62.75;100213.02;105855;1305;21962;-67
2022/11/23 03:01:18;;;;;;;14.50;9.40;;;;;;;5.90;62.76;100218.09;105921;1305;21978;-68
2022/11/23 03:03:45;;;;;;;11.60;7.90;;;;;;;5.97;62.83;100215.67;105851;1305;22013;-68
2022/11/23 03:06:11;;;;;;;16.40;10.20;;;;;;;6.04;62.82;100217.12;105730;1306;21945;-65
2022/11/23 03:08:37;;;;;;;15.80;9.30;;;;;;;6.09;62.42;100219.40;105639;1306;22029;-65
2022/11/23 03:11:03;;;;;;;13.80;9.10;;;;;;;6.10;62.45;100222.71;105747;1305;22083;-65
2022/11/23 03:13:29;;;;;;;12.80;8.40;;;;;;;6.11;62.31;100224.64;105712;1306;21976;-67
2022/11/23 03:15:55;;;;;;;14.90;9.00;;;;;;;6.14;62.45;100219.44;105884;1304;21977;-63
2022/11/23 03:18:22;;;;;;;13.10;8.70;;;;;;;6.18;62.60;100223.27;105899;1301;22020;-63
2022/11/23 03:20:48;;;;;;;11.60;8.10;;;;;;;6.20;62.65;100227.63;105944;1305;23170;-67
2022/11/23 03:23:13;;;;;;;10.10;7.30;;;;;;;6.24;62.19;100227.98;105766;1306;21967;-68
2022/11/23 03:25:39;;;;;;;13.30;7.80;;;;;;;6.24;62.49;100224.86;105843;1306;23097;-67
2022/11/23 03:28:05;;;;;;;12.20;7.20;;;;;;;6.25;62.32;100226.77;105843;1302;21958;-67
2022/11/23 03:30:31;;;;;;;11.50;7.40;;;;;;;6.26;62.71;100224.16;105682;1306;23612;-69
2022/11/23 03:33:00;;;;;;;11.40;7.20;;;;;;;6.27;62.29;100222.25;105843;1301;21959;-67
2022/11/23 03:35:26;;;;;;;16.00;7.60;;;;;;;6.28;62.29;100222.42;105765;1304;21976;-67
2022/11/23 03:37:51;;;;;;;11.60;7.10;;;;;;;6.29;62.31;100222.77;105704;1304;21972;-64
2022/11/23 03:40:18;;;;;;;11.40;6.60;;;;;;;6.30;62.39;100224.70;105767;1305;21962;-67
2022/11/23 03:42:44;;;;;;;20.30;7.10;;;;;;;6.32;62.62;100223.48;105794;1306;21987;-67
2022/11/23 03:45:10;;;;;;;10.60;7.10;;;;;;;6.34;62.61;100223.15;105784;1304;21961;-67
2022/11/23 03:47:35;;;;;;;14.10;7.00;;;;;;;6.36;62.72;100225.23;105845;1305;22011;-68
2022/11/23 03:50:03;;;;;;;13.30;7.10;;;;;;;6.38;62.25;100218.98;105754;1304;22029;-68
2022/11/23 03:52:30;;;;;;;11.80;7.20;;;;;;;6.40;62.28;100212.70;105692;1306;21967;-63
2022/11/23 03:54:56;;;;;;;14.60;7.80;;;;;;;6.41;62.05;100210.08;105719;1306;21960;-68
2022/11/23 03:57:23;;;;;;;13.50;7.90;;;;;;;6.41;61.95;100203.63;105792;1306;21985;-63
2022/11/23 03:59:48;;;;;;;14.70;7.50;;;;;;;6.39;61.97;100200.67;105660;1306;21970;-68
2022/11/23 04:02:14;;;;;;;13.40;7.20;;;;;;;6.38;62.14;100204.67;105736;1302;22085;-68
2022/11/23 04:04:40;;;;;;;11.00;6.60;;;;;;;6.37;62.10;100201.72;105733;1306;21958;-63
2022/11/23 04:07:06;;;;;;;10.40;6.80;;;;;;;6.37;62.13;100195.62;105780;1306;23242;-64
2022/11/23 04:09:33;;;;;;;10.40;7.40;;;;;;;6.36;62.15;100196.48;105752;1304;21975;-63
2022/11/23 04:11:59;;;;;;;11.50;8.00;;;;;;;6.36;62.05;100193.52;105731;1306;21967;-63
2022/11/23 04:14:24;;;;;;;13.60;9.00;;;;;;;6.38;62.05;100189.86;105760;1306;21960;-63
2022/11/23 04:16:50;;;;;;;14.80;9.00;;;;;;;6.41;62.09;100194.91;105835;1301;21966;-63
2022/11/23 04:19:16;;;;;;;13.80;8.00;;;;;;;6.40;61.89;100189.52;105735;1306;23802;-63
2022/11/23 04:21:41;;;;;;;10.40;7.10;;;;;;;6.40;62.31;100189.70;105753;1306;23094;-68
2022/11/23 04:24:07;;;;;;;14.00;7.60;;;;;;;6.38;62.45;100177.48;105776;1306;21992;-63
2022/11/23 04:26:33;;;;;;;9.50;6.90;;;;;;;6.37;62.43;100164.94;105663;1306;21964;-63
2022/11/23 04:28:59;;;;;;;12.30;7.90;;;;;;;6.39;62.50;100166.16;105790;1306;21966;-64
2022/11/23 04:31:24;;;;;;;11.40;8.20;;;;;;;6.37;62.07;100174.88;105793;1304;22051;-63
2022/11/23 04:33:51;;;;;;;11.80;7.70;;;;;;;6.40;62.42;100177.48;105814;1306;21968;-63
2022/11/23 04:36:17;;;;;;;12.90;8.30;;;;;;;6.41;62.38;100178.70;105825;1306;21973;-68
2022/11/23 04:38:43;;;;;;;14.90;8.30;;;;;;;6.44;62.23;100175.92;105840;1305;21963;-72
2022/11/23 04:41:09;;;;;;;13.20;7.50;;;;;;;6.47;62.21;100179.58;105786;1306;23746;-70
2022/11/23 04:43:39;;;;;;;11.10;7.50;;;;;;;6.51;62.27;100186.05;106127;1306;23716;-70
2022/11/23 04:46:04;;;;;;;10.60;7.40;;;;;;;6.51;62.32;100190.75;106013;1306;21989;-66
2022/11/23 04:48:32;;;;;;;12.90;7.60;;;;;;;6.52;62.49;100198.06;106092;1306;21967;-72
2022/11/23 04:51:12;;;;;;;12.80;8.20;;;;;;;6.53;62.41;100196.16;106115;1306;23085;-72
2022/11/23 04:53:44;;;;;;;11.90;7.60;;;;;;;6.51;62.56;100186.92;106032;1306;21987;-71
2022/11/23 04:56:14;;;;;;;12.90;7.60;;;;;;;6.55;62.52;100180.82;106088;1306;21977;-69
2022/11/23 04:58:40;;;;;;;15.90;8.60;;;;;;;6.54;62.49;100191.29;105989;1305;21969;-69
2022/11/23 05:01:06;;;;;;;14.00;8.40;;;;;;;6.55;62.62;100192.15;106013;1306;21945;-68
2022/11/23 05:03:56;;;;;;;12.80;7.90;;;;;;;6.58;62.51;100193.55;106095;1306;21948;-71
2022/11/23 05:12:35;;;;;;;17.00;7.40;;;;;;;6.74;62.67;100198.27;106455;1313;21770;-71
2022/11/23 05:15:03;;;;;;;20.10;8.50;;;;;;;6.78;62.47;100196.35;107381;1312;21790;-76
2022/11/23 05:17:29;;;;;;;33.30;7.80;;;;;;;6.81;62.58;100197.39;107344;1312;22382;-70
2022/11/23 05:20:17;;;;;;;;;;;;;;;;;;;;;
2022/11/23 05:22:54;;;;;;;19.20;7.40;;;;;;;6.87;62.32;100208.91;107294;1313;21842;-76
2022/11/23 05:25:20;;;;;;;17.30;6.70;;;;;;;6.90;62.63;100210.98;107289;1312;22240;-71
2022/11/23 05:27:48;;;;;;;19.80;8.00;;;;;;;6.97;62.46;100210.30;107295;1312;21765;-65
2022/11/23 05:31:14;;;;;;;22.30;8.00;;;;;;;7.00;62.39;100209.09;106573;1313;1002774;-75
2022/11/23 05:33:44;;;;;;;26.50;8.30;;;;;;;7.04;62.25;100204.73;107151;1313;22373;-70
2022/11/23 05:36:12;;;;;;;23.40;7.90;;;;;;;7.08;62.53;100202.09;107274;1313;21855;-63
2022/11/23 05:38:39;;;;;;;26.60;7.40;;;;;;;7.06;62.45;100199.14;107275;1313;21784;-68
2022/11/23 05:41:05;;;;;;;26.40;9.20;;;;;;;7.09;62.52;100195.63;107291;1313;21867;-69
2022/11/23 05:43:31;;;;;;;19.40;7.50;;;;;;;7.17;62.58;100195.80;107292;1311;21852;-70
2022/11/23 07:35:18;;;;;;;17.20;12.80;;;;;;;4.24;79.86;100161.51;104479;1309;1002145;-64
2022/11/23 07:38:09;;;;;;;24.60;13.70;;;;;;;6.55;70.99;100151.35;105321;1312;21965;-69
2022/11/23 07:40:38;;;;;;;25.30;15.20;;;;;;;6.88;69.16;100145.94;105267;1312;21966;-70
2022/11/23 07:43:04;;;;;;;22.10;14.70;;;;;;;7.05;68.71;100144.70;105396;1312;21975;-69
2022/11/23 07:45:31;;;;;;;19.60;12.80;;;;;;;7.17;68.32;100148.52;104636;1312;1002058;-64
2022/11/23 07:48:02;;;;;;;20.90;12.60;;;;;;;7.31;67.91;100148.30;105418;1308;399172;-64
2022/11/23 07:50:28;;;;;;;21.00;11.90;;;;;;;7.45;67.48;100146.88;105639;1309;23730;-65
2022/11/23 07:52:54;;;;;;;17.40;10.80;;;;;;;7.57;67.39;100142.29;105632;1309;21979;-64
2022/11/23 07:55:20;;;;;;;18.00;11.50;;;;;;;7.68;66.98;100136.84;105636;1308;21964;-69
2022/11/23 07:57:46;;;;;;;19.60;11.10;;;;;;;7.79;66.85;100135.22;105592;1301;22178;-68
2022/11/23 08:00:12;;;;;;;16.70;11.10;;;;;;;7.94;66.76;100130.08;105640;1309;22011;-64
2022/11/23 08:02:39;;;;;;;13.70;9.60;;;;;;;8.03;66.37;100125.30;105629;1309;21967;-68
2022/11/23 08:05:05;;;;;;;14.90;10.60;;;;;;;8.09;66.33;100118.27;105631;1309;21964;-63
2022/11/23 08:07:31;;;;;;;16.30;11.20;;;;;;;8.11;66.23;100115.46;105624;1309;22012;-64
2022/11/23 08:09:57;;;;;;;16.40;10.70;;;;;;;8.15;66.32;100109.50;105611;1308;21962;-64
2022/11/23 08:12:23;;;;;;;15.50;10.80;;;;;;;8.21;65.94;100106.84;105638;1309;21961;-67
2022/11/23 08:14:51;;;;;;;15.30;10.00;;;;;;;8.22;65.94;100103.16;105642;1304;21990;-67
2022/11/23 08:17:18;;;;;;;15.50;10.50;;;;;;;8.21;66.17;100099.32;105640;1309;23639;-66
2022/11/23 08:19:43;;;;;;;15.70;10.60;;;;;;;8.23;66.07;100095.13;105652;1308;21962;-67
2022/11/23 08:22:09;;;;;;;13.00;9.60;;;;;;;8.23;66.16;100086.72;105688;1306;21975;-63
2022/11/23 08:24:35;;;;;;;19.10;10.50;;;;;;;8.29;66.19;100084.05;105635;1307;22073;-68
2022/11/23 08:27:00;;;;;;;18.30;10.30;;;;;;;8.32;66.05;100080.54;105723;1306;22051;-68
2022/11/23 08:29:26;;;;;;;17.00;10.80;;;;;;;8.33;66.21;100080.89;105600;1309;21968;-67
2022/11/23 08:31:52;;;;;;;24.40;11.60;;;;;;;8.36;66.22;100079.99;105594;1309;21957;-68
2022/11/23 08:34:19;;;;;;;18.50;11.40;;;;;;;8.38;66.08;100079.63;105649;1307;21961;-63
2022/11/23 08:36:45;;;;;;;20.40;11.10;;;;;;;8.42;66.15;100070.66;105639;1309;21957;-68
2022/11/23 08:39:13;;;;;;;20.20;10.70;;;;;;;8.49;66.12;100067.49;105708;1309;21956;-64
2022/11/23 08:41:38;;;;;;;18.00;11.60;;;;;;;8.55;65.95;100060.80;105700;1306;21986;-63
2022/11/23 08:44:07;;;;;;;19.10;11.30;;;;;;;8.60;65.88;100053.75;105825;1306;22002;-65
2022/11/23 08:46:33;;;;;;;21.70;10.70;;;;;;;8.62;65.84;100050.41;105691;1307;23086;-67
2022/11/23 08:48:58;;;;;;;19.40;11.00;;;;;;;8.67;65.83;100053.34;105861;1307;21954;-68
2022/11/23 08:51:24;;;;;;;20.80;11.70;;;;;;;8.72;65.89;100046.83;105840;1307;21955;-66
2022/11/23 08:53:50;;;;;;;20.20;11.40;;;;;;;8.78;65.97;100043.96;105849;1305;21953;-69
2022/11/23 08:56:16;;;;;;;19.60;11.60;;;;;;;8.78;65.93;100038.89;105885;1303;21965;-69
2022/11/23 08:58:42;;;;;;;19.60;11.10;;;;;;;8.81;66.01;100026.27;105956;1307;21961;-64
2022/11/23 09:01:09;;;;;;;17.30;10.50;;;;;;;8.84;65.95;100013.97;106090;1304;22000;-69
2022/11/23 09:03:35;;;;;;;17.80;11.20;;;;;;;8.91;65.94;100015.48;106066;1307;21957;-67
2022/11/23 09:06:01;;;;;;;16.30;10.00;;;;;;;8.96;66.10;100022.25;106008;1307;21976;-68
2022/11/23 09:08:29;;;;;;;14.30;10.20;;;;;;;9.00;65.92;100027.27;105812;1305;22002;-68
2022/11/23 09:11:00;;;;;;;16.40;11.50;;;;;;;9.02;65.77;100029.00;106022;1307;23614;-68
2022/11/23 09:13:27;;;;;;;17.30;10.80;;;;;;;9.03;65.84;100031.10;106160;1307;21957;-65
2022/11/23 09:15:59;;;;;;;17.10;11.10;;;;;;;9.06;65.71;100032.80;106130;1306;23237;-64
2022/11/23 09:18:26;;;;;;;20.20;10.40;;;;;;;9.15;65.76;100033.05;106111;1307;21964;-68
2022/11/23 09:20:53;;;;;;;19.90;10.70;;;;;;;9.27;65.97;100029.41;106022;1307;21967;-68
2022/11/23 09:23:18;;;;;;;83.20;14.50;;;;;;;9.38;66.22;100022.08;105371;1306;1002661;-66
2022/11/23 09:25:47;;;;;;;85.00;15.50;;;;;;;9.49;65.94;100018.80;106016;1307;21951;-68
2022/11/23 09:28:13;;;;;;;83.90;15.50;;;;;;;9.56;65.63;100023.08;106098;1307;21959;-69
2022/11/23 09:30:43;;;;;;;56.00;13.90;;;;;;;9.64;65.59;100020.68;106019;1305;21998;-63
2022/11/23 09:33:09;;;;;;;64.60;14.70;;;;;;;9.78;65.61;100011.55;105886;1306;21962;-68
2022/11/23 09:35:35;;;;;;;52.70;13.30;;;;;;;9.87;65.48;100005.80;105773;1307;21951;-63
2022/11/23 09:38:00;;;;;;;98.60;16.20;;;;;;;9.94;65.52;99997.45;105722;1307;21968;-69
2022/11/23 09:40:30;;;;;;;64.70;14.30;;;;;;;10.04;65.78;99996.24;105803;1307;21959;-69
2022/11/23 09:43:04;;;;;;;105.60;19.50;;;;;;;10.13;65.75;99992.09;106018;1307;21957;-63
2022/11/23 09:45:33;;;;;;;59.00;14.50;;;;;;;10.20;65.68;99994.76;105756;1307;21973;-63
2022/11/23 09:48:18;;;;;;;34.20;11.80;;;;;;;10.25;65.71;99991.70;105791;1307;21999;-63
2022/11/23 09:50:49;;;;;;;23.50;13.10;;;;;;;10.38;65.36;99991.48;105736;1307;21960;-64
2022/11/23 09:53:24;;;;;;;17.00;10.20;;;;;;;10.48;65.26;99991.34;106073;1307;21972;-63
2022/11/23 09:55:51;;;;;;;26.60;10.80;;;;;;;10.51;64.98;99990.40;106079;1305;21972;-63
2022/11/23 09:58:19;;;;;;;21.00;10.70;;;;;;;10.55;64.77;99990.15;106084;1306;21968;-63
2022/11/23 10:01:03;;;;;;;16.30;10.60;;;;;;;10.47;65.12;99986.27;106095;1306;21963;-67
2022/11/23 10:11:39;;;;;;;13.90;9.60;;;;;;;9.97;66.03;99969.54;106847;1297;21976;-66
2022/11/23 10:14:30;;;;;;;14.20;9.60;;;;;;;10.03;65.50;99963.67;106898;1297;21932;-67
2022/11/23 10:17:25;;;;;;;39.90;12.90;;;;;;;9.97;65.70;99953.08;106821;1289;21942;-67
2022/11/23 10:20:15;;;;;;;17.80;10.00;;;;;;;9.99;65.84;99937.25;106654;1297;296536;-68
2022/11/23 10:22:50;;;;;;;12.30;9.10;;;;;;;10.03;65.80;99934.56;106959;1297;21944;-66
2022/11/23 10:25:18;;;;;;;14.30;10.00;;;;;;;10.07;65.76;99927.13;107001;1295;21953;-67
2022/11/23 10:27:45;;;;;;;21.00;10.20;;;;;;;10.10;65.63;99920.08;106924;1296;21946;-68
2022/11/23 10:30:13;;;;;;;13.90;9.80;;;;;;;10.15;65.56;99912.80;106996;1297;23812;-66
2022/11/23 10:33:20;;;;;;;13.70;10.10;;;;;;;10.20;65.49;99908.14;106841;1296;24348;-66
2022/11/23 10:35:46;;;;;;;13.70;9.90;;;;;;;10.23;65.53;99896.86;106453;1297;21947;-67
2022/11/23 10:38:14;;;;;;;14.20;9.80;;;;;;;10.31;65.37;99890.58;106836;1296;22150;-66
2022/11/23 10:41:04;;;;;;;14.10;10.70;;;;;;;10.34;65.48;99889.30;106835;1296;23087;-67
2022/11/23 10:43:51;;;;;;;13.10;9.30;;;;;;;10.38;65.45;99890.11;106861;1296;21957;-67
2022/11/23 10:46:36;;;;;;;12.00;8.90;;;;;;;10.46;65.37;99891.56;106867;1295;21984;-67
2022/11/23 10:49:31;;;;;;;13.70;9.20;;;;;;;10.51;65.42;99888.66;106900;1295;21958;-66
2022/11/23 10:52:36;;;;;;;16.10;10.50;;;;;;;10.56;65.22;99886.27;106985;1297;21949;-68
2022/11/23 10:55:04;;;;;;;13.40;9.30;;;;;;;10.55;65.14;99878.92;106161;1302;21959;-67
2022/11/23 10:57:35;;;;;;;11.50;8.60;;;;;;;10.54;65.18;99875.09;106170;1303;21967;-67
2022/11/23 11:00:14;;;;;;;11.60;8.80;;;;;;;10.50;65.33;99873.77;106600;1297;23186;-67
2022/11/23 11:02:48;;;;;;;11.90;8.30;;;;;;;10.52;65.55;99863.38;106957;1297;21949;-67
2022/11/23 11:05:30;;;;;;;14.60;9.80;;;;;;;10.55;65.49;99853.31;106945;1297;21941;-68
2022/11/23 11:08:01;;;;;;;11.50;8.30;;;;;;;10.58;65.47;99845.71;106297;1295;1002611;-66
2022/11/23 11:10:32;;;;;;;11.40;8.60;;;;;;;10.61;65.50;99844.77;106911;1296;21958;-67
2022/11/23 11:12:59;;;;;;;13.30;8.40;;;;;;;10.62;65.39;99848.78;107000;1295;21962;-67
2022/11/23 11:18:42;;;;;;;10.80;7.90;;;;;;;10.69;65.13;99852.33;105276;1309;543979;-66
2022/11/23 11:21:23;;;;;;;15.10;7.80;;;;;;;10.67;65.30;99851.84;105407;1307;22066;-67
2022/11/23 11:24:06;;;;;;;10.10;7.30;;;;;;;10.67;65.45;99851.66;105434;1312;21950;-69
2022/11/23 11:26:34;;;;;;;13.70;7.40;;;;;;;10.68;65.35;99849.53;105464;1312;22186;-68
2022/11/23 11:29:02;;;;;;;13.60;7.00;;;;;;;10.67;65.56;99847.45;105369;1312;21983;-67
2022/11/23 11:31:30;;;;;;;10.70;7.20;;;;;;;10.67;65.62;99839.38;105113;1312;246334;-68
2022/11/23 11:34:15;;;;;;;12.20;7.60;;;;;;;10.70;65.81;99827.02;105602;1309;23620;-67
2022/11/23 11:37:18;;;;;;;11.10;7.40;;;;;;;10.73;65.69;99826.27;105616;1309;21964;-68
2022/11/23 11:39:50;;;;;;;13.00;7.60;;;;;;;10.76;65.66;99832.71;105580;1309;21999;-69
2022/11/23 11:42:19;;;;;;;16.40;7.20;;;;;;;10.79;65.69;99825.44;105614;1309;22514;-71
2022/11/23 11:44:45;;;;;;;13.80;7.50;;;;;;;10.83;65.65;99822.70;105684;1309;22019;-70
2022/11/23 11:47:31;;;;;;;13.50;7.00;;;;;;;10.90;65.94;99821.51;105644;1301;21964;-69
2022/11/23 11:50:03;;;;;;;8.90;6.50;;;;;;;11.00;65.94;99819.88;105965;1306;23122;-72
2022/11/23 11:52:34;;;;;;;9.00;6.30;;;;;;;11.07;66.02;99823.76;105812;1309;23107;-72
2022/11/23 11:55:06;;;;;;;8.80;6.30;;;;;;;11.13;66.15;99821.15;105726;1308;21945;-71
2022/11/23 11:57:43;;;;;;;13.10;6.80;;;;;;;11.20;66.13;99809.95;106282;1309;21972;-69
2022/11/23 12:00:14;;;;;;;12.70;6.60;;;;;;;11.26;65.95;99804.70;105801;1309;23740;-70
2022/11/23 12:03:02;;;;;;;8.40;5.10;;;;;;;11.30;65.85;99806.00;106452;1309;21961;-71
2022/11/23 12:05:47;;;;;;;11.40;6.50;;;;;;;11.33;65.74;99791.36;105585;1309;21964;-69
2022/11/23 12:08:25;;;;;;;11.00;6.30;;;;;;;11.37;65.69;99779.32;105702;1308;22700;-69
2022/11/23 12:10:52;;;;;;;9.40;5.30;;;;;;;11.40;65.87;99769.39;105625;1309;21971;-68
2022/11/23 12:13:20;;;;;;;12.70;5.70;;;;;;;11.45;65.77;99762.23;105657;1309;23105;-67
2022/11/23 12:16:16;;;;;;;10.40;5.90;;;;;;;11.51;65.77;99748.74;105655;1308;21978;-68
2022/11/23 12:18:41;;;;;;;11.90;5.60;;;;;;;11.53;65.73;99749.58;105599;1297;21988;-68
2022/11/23 12:21:22;;;;;;;10.50;6.10;;;;;;;11.57;65.89;99761.23;105746;1309;23995;-68
